sensor_id;sensor_type;location;lat;lon;timestamp;P1;durP1;ratioP1;P2;durP2;ratioP2
11596;SDS011;5854;48.072;16.286;2023-02-12T00:00:31;21.83;;;17.23;;
11596;SDS011;5854;48.072;16.286;2023-02-12T00:02:58;21.77;;;17.67;;
11596;SDS011;5854;48.072;16.286;2023-02-12T00:05:25;21.17;;;16.77;;
11596;SDS011;5854;48.072;16.286;2023-02-12T00:07:52;19.02;;;16.67;;
11596;SDS011;5854;48.072;16.286;2023-02-12T00:10:19;20.35;;;16.00;;
11596;SDS011;5854;48.072;16.286;2023-02-12T00:12:48;22.05;;;17.10;;
11596;SDS011;5854;48.072;16.286;2023-02-12T00:15:15;19.38;;;16.15;;
11596;SDS011;5854;48.072;16.286;2023-02-12T00:17:42;18.10;;;16.20;;
11596;SDS011;5854;48.072;16.286;2023-02-12T00:20:09;22.27;;;17.30;;
11596;SDS011;5854;48.072;16.286;2023-02-12T00:22:37;21.75;;;16.70;;
11596;SDS011;5854;48.072;16.286;2023-02-12T00:25:04;20.05;;;15.65;;
11596;SDS011;5854;48.072;16.286;2023-02-12T00:27:32;23.42;;;16.52;;
11596;SDS011;5854;48.072;16.286;2023-02-12T00:30:02;19.98;;;16.45;;
11596;SDS011;5854;48.072;16.286;2023-02-12T00:32:29;19.05;;;15.15;;
11596;SDS011;5854;48.072;16.286;2023-02-12T00:34:56;23.42;;;16.75;;
11596;SDS011;5854;48.072;16.286;2023-02-12T00:37:23;18.70;;;16.35;;
11596;SDS011;5854;48.072;16.286;2023-02-12T00:39:50;20.42;;;15.90;;
11596;SDS011;5854;48.072;16.286;2023-02-12T00:42:17;18.80;;;15.30;;
11596;SDS011;5854;48.072;16.286;2023-02-12T00:44:44;18.77;;;15.65;;
11596;SDS011;5854;48.072;16.286;2023-02-12T00:47:12;20.63;;;16.25;;
11596;SDS011;5854;48.072;16.286;2023-02-12T00:49:41;20.55;;;16.25;;
11596;SDS011;5854;48.072;16.286;2023-02-12T00:52:08;18.50;;;16.17;;
11596;SDS011;5854;48.072;16.286;2023-02-12T00:54:35;18.52;;;16.48;;
11596;SDS011;5854;48.072;16.286;2023-02-12T00:57:02;19.42;;;16.00;;
11596;SDS011;5854;48.072;16.286;2023-02-12T00:59:29;20.13;;;15.60;;
11596;SDS011;5854;48.072;16.286;2023-02-12T01:01:56;19.48;;;15.60;;
11596;SDS011;5854;48.072;16.286;2023-02-12T01:04:25;20.50;;;15.65;;
11596;SDS011;5854;48.072;16.286;2023-02-12T01:06:52;18.55;;;15.35;;
11596;SDS011;5854;48.072;16.286;2023-02-12T01:09:19;18.65;;;15.07;;
11596;SDS011;5854;48.072;16.286;2023-02-12T01:11:46;19.83;;;15.68;;
11596;SDS011;5854;48.072;16.286;2023-02-12T01:14:13;16.65;;;14.43;;
11596;SDS011;5854;48.072;16.286;2023-02-12T01:16:40;18.00;;;15.20;;
11596;SDS011;5854;48.072;16.286;2023-02-12T01:19:09;16.77;;;14.98;;
11596;SDS011;5854;48.072;16.286;2023-02-12T01:21:39;18.92;;;15.50;;
11596;SDS011;5854;48.072;16.286;2023-02-12T01:24:06;20.75;;;15.40;;
11596;SDS011;5854;48.072;16.286;2023-02-12T01:26:33;16.77;;;14.18;;
11596;SDS011;5854;48.072;16.286;2023-02-12T01:29:01;19.20;;;14.70;;
11596;SDS011;5854;48.072;16.286;2023-02-12T01:34:02;17.45;;;15.50;;
11596;SDS011;5854;48.072;16.286;2023-02-12T01:36:32;20.35;;;16.25;;
11596;SDS011;5854;48.072;16.286;2023-02-12T01:39:01;17.60;;;15.48;;
11596;SDS011;5854;48.072;16.286;2023-02-12T01:41:29;21.02;;;15.15;;
11596;SDS011;5854;48.072;16.286;2023-02-12T01:44:05;21.15;;;17.98;;
11596;SDS011;5854;48.072;16.286;2023-02-12T01:46:45;18.00;;;14.52;;
11596;SDS011;5854;48.072;16.286;2023-02-12T01:49:15;18.58;;;15.80;;
11596;SDS011;5854;48.072;16.286;2023-02-12T01:51:46;17.35;;;15.55;;
11596;SDS011;5854;48.072;16.286;2023-02-12T01:54:17;16.98;;;14.85;;
11596;SDS011;5854;48.072;16.286;2023-02-12T01:56:46;20.08;;;16.40;;
11596;SDS011;5854;48.072;16.286;2023-02-12T01:59:14;17.17;;;15.30;;
11596;SDS011;5854;48.072;16.286;2023-02-12T02:01:42;18.67;;;15.80;;
11596;SDS011;5854;48.072;16.286;2023-02-12T02:04:10;20.73;;;15.73;;
11596;SDS011;5854;48.072;16.286;2023-02-12T02:06:41;19.05;;;15.38;;
11596;SDS011;5854;48.072;16.286;2023-02-12T02:09:13;22.17;;;15.55;;
11596;SDS011;5854;48.072;16.286;2023-02-12T02:11:42;16.48;;;14.68;;
11596;SDS011;5854;48.072;16.286;2023-02-12T02:14:27;17.63;;;15.70;;
11596;SDS011;5854;48.072;16.286;2023-02-12T02:17:16;20.73;;;16.75;;
11596;SDS011;5854;48.072;16.286;2023-02-12T02:23:28;18.17;;;14.73;;
11596;SDS011;5854;48.072;16.286;2023-02-12T02:29:19;17.13;;;15.30;;
11596;SDS011;5854;48.072;16.286;2023-02-12T02:32:07;19.10;;;14.85;;
11596;SDS011;5854;48.072;16.286;2023-02-12T02:34:39;18.63;;;16.25;;
11596;SDS011;5854;48.072;16.286;2023-02-12T02:37:14;20.45;;;16.90;;
11596;SDS011;5854;48.072;16.286;2023-02-12T02:39:47;17.35;;;15.30;;
11596;SDS011;5854;48.072;16.286;2023-02-12T02:42:19;18.50;;;15.45;;
11596;SDS011;5854;48.072;16.286;2023-02-12T02:44:53;21.90;;;17.15;;
11596;SDS011;5854;48.072;16.286;2023-02-12T02:47:28;19.65;;;15.70;;
11596;SDS011;5854;48.072;16.286;2023-02-12T02:50:01;19.08;;;15.80;;
11596;SDS011;5854;48.072;16.286;2023-02-12T02:52:33;18.42;;;15.15;;
11596;SDS011;5854;48.072;16.286;2023-02-12T02:55:05;18.42;;;15.68;;
11596;SDS011;5854;48.072;16.286;2023-02-12T02:57:35;20.20;;;17.30;;
11596;SDS011;5854;48.072;16.286;2023-02-12T03:00:10;19.15;;;15.80;;
11596;SDS011;5854;48.072;16.286;2023-02-12T03:02:44;16.70;;;14.65;;
11596;SDS011;5854;48.072;16.286;2023-02-12T03:05:18;20.17;;;15.18;;
11596;SDS011;5854;48.072;16.286;2023-02-12T03:07:49;20.35;;;16.40;;
11596;SDS011;5854;48.072;16.286;2023-02-12T03:10:21;16.08;;;14.38;;
11596;SDS011;5854;48.072;16.286;2023-02-12T03:12:53;16.90;;;14.88;;
11596;SDS011;5854;48.072;16.286;2023-02-12T03:15:27;19.00;;;15.48;;
11596;SDS011;5854;48.072;16.286;2023-02-12T03:18:01;18.25;;;15.30;;
11596;SDS011;5854;48.072;16.286;2023-02-12T03:20:34;22.08;;;15.65;;
11596;SDS011;5854;48.072;16.286;2023-02-12T03:23:09;21.00;;;15.32;;
11596;SDS011;5854;48.072;16.286;2023-02-12T03:28:10;17.55;;;14.35;;
11596;SDS011;5854;48.072;16.286;2023-02-12T03:33:17;17.55;;;14.80;;
11596;SDS011;5854;48.072;16.286;2023-02-12T03:35:51;24.63;;;17.10;;
11596;SDS011;5854;48.072;16.286;2023-02-12T03:38:29;20.20;;;15.93;;
11596;SDS011;5854;48.072;16.286;2023-02-12T03:41:04;17.60;;;15.30;;
11596;SDS011;5854;48.072;16.286;2023-02-12T03:43:39;22.10;;;14.88;;
11596;SDS011;5854;48.072;16.286;2023-02-12T03:46:16;20.20;;;15.25;;
11596;SDS011;5854;48.072;16.286;2023-02-12T03:48:55;24.15;;;18.40;;
11596;SDS011;5854;48.072;16.286;2023-02-12T03:51:28;20.25;;;15.02;;
11596;SDS011;5854;48.072;16.286;2023-02-12T03:54:00;16.17;;;13.95;;
11596;SDS011;5854;48.072;16.286;2023-02-12T03:56:31;19.60;;;15.40;;
11596;SDS011;5854;48.072;16.286;2023-02-12T03:59:04;18.65;;;15.55;;
11596;SDS011;5854;48.072;16.286;2023-02-12T04:01:32;23.92;;;15.98;;
11596;SDS011;5854;48.072;16.286;2023-02-12T04:04:03;18.88;;;16.25;;
11596;SDS011;5854;48.072;16.286;2023-02-12T04:06:33;22.00;;;18.17;;
11596;SDS011;5854;48.072;16.286;2023-02-12T04:09:03;17.65;;;15.13;;
11596;SDS011;5854;48.072;16.286;2023-02-12T04:11:36;21.60;;;18.38;;
11596;SDS011;5854;48.072;16.286;2023-02-12T04:14:19;19.75;;;14.88;;
11596;SDS011;5854;48.072;16.286;2023-02-12T04:16:57;20.88;;;14.98;;
11596;SDS011;5854;48.072;16.286;2023-02-12T04:19:37;17.00;;;14.13;;
11596;SDS011;5854;48.072;16.286;2023-02-12T04:22:20;17.00;;;15.23;;
11596;SDS011;5854;48.072;16.286;2023-02-12T04:25:03;18.10;;;14.68;;
11596;SDS011;5854;48.072;16.286;2023-02-12T04:27:47;17.73;;;15.75;;
11596;SDS011;5854;48.072;16.286;2023-02-12T04:30:30;17.30;;;14.93;;
11596;SDS011;5854;48.072;16.286;2023-02-12T04:33:05;17.33;;;14.27;;
11596;SDS011;5854;48.072;16.286;2023-02-12T04:35:43;18.23;;;15.00;;
11596;SDS011;5854;48.072;16.286;2023-02-12T04:38:20;17.85;;;14.52;;
11596;SDS011;5854;48.072;16.286;2023-02-12T04:41:04;19.70;;;14.10;;
11596;SDS011;5854;48.072;16.286;2023-02-12T04:43:41;17.17;;;15.13;;
11596;SDS011;5854;48.072;16.286;2023-02-12T04:46:20;19.20;;;15.77;;
11596;SDS011;5854;48.072;16.286;2023-02-12T04:48:50;16.58;;;14.07;;
11596;SDS011;5854;48.072;16.286;2023-02-12T04:51:24;20.02;;;16.13;;
11596;SDS011;5854;48.072;16.286;2023-02-12T04:53:56;19.50;;;15.65;;
11596;SDS011;5854;48.072;16.286;2023-02-12T04:56:31;19.60;;;16.35;;
11596;SDS011;5854;48.072;16.286;2023-02-12T04:59:08;21.20;;;16.45;;
11596;SDS011;5854;48.072;16.286;2023-02-12T05:01:41;16.40;;;14.63;;
11596;SDS011;5854;48.072;16.286;2023-02-12T05:04:17;22.40;;;17.23;;
11596;SDS011;5854;48.072;16.286;2023-02-12T05:07:05;21.33;;;17.27;;
11596;SDS011;5854;48.072;16.286;2023-02-12T05:09:43;16.50;;;14.48;;
11596;SDS011;5854;48.072;16.286;2023-02-12T05:12:16;18.58;;;15.55;;
11596;SDS011;5854;48.072;16.286;2023-02-12T05:19:51;18.77;;;15.10;;
11596;SDS011;5854;48.072;16.286;2023-02-12T05:22:32;16.63;;;14.93;;
11596;SDS011;5854;48.072;16.286;2023-02-12T05:25:02;18.60;;;15.23;;
11596;SDS011;5854;48.072;16.286;2023-02-12T05:27:39;15.98;;;14.27;;
11596;SDS011;5854;48.072;16.286;2023-02-12T05:30:09;20.83;;;18.02;;
11596;SDS011;5854;48.072;16.286;2023-02-12T05:32:41;19.48;;;16.80;;
11596;SDS011;5854;48.072;16.286;2023-02-12T05:35:12;20.73;;;14.50;;
11596;SDS011;5854;48.072;16.286;2023-02-12T05:37:47;20.92;;;16.88;;
11596;SDS011;5854;48.072;16.286;2023-02-12T05:40:23;16.33;;;14.73;;
11596;SDS011;5854;48.072;16.286;2023-02-12T05:42:56;20.73;;;15.43;;
11596;SDS011;5854;48.072;16.286;2023-02-12T05:45:45;19.55;;;16.50;;
11596;SDS011;5854;48.072;16.286;2023-02-12T05:48:19;20.13;;;17.60;;
11596;SDS011;5854;48.072;16.286;2023-02-12T05:56:16;17.80;;;15.13;;
11596;SDS011;5854;48.072;16.286;2023-02-12T05:58:52;17.52;;;14.32;;
11596;SDS011;5854;48.072;16.286;2023-02-12T06:01:29;19.02;;;16.73;;
11596;SDS011;5854;48.072;16.286;2023-02-12T06:04:04;15.10;;;13.48;;
11596;SDS011;5854;48.072;16.286;2023-02-12T06:06:45;18.65;;;15.90;;
11596;SDS011;5854;48.072;16.286;2023-02-12T06:17:04;21.20;;;14.65;;
11596;SDS011;5854;48.072;16.286;2023-02-12T06:19:40;22.25;;;17.48;;
11596;SDS011;5854;48.072;16.286;2023-02-12T06:25:03;21.45;;;17.33;;
11596;SDS011;5854;48.072;16.286;2023-02-12T06:27:36;17.77;;;15.15;;
11596;SDS011;5854;48.072;16.286;2023-02-12T06:30:15;21.80;;;16.38;;
11596;SDS011;5854;48.072;16.286;2023-02-12T06:35:38;17.65;;;15.90;;
11596;SDS011;5854;48.072;16.286;2023-02-12T06:41:07;16.05;;;14.02;;
11596;SDS011;5854;48.072;16.286;2023-02-12T06:43:51;17.48;;;15.60;;
11596;SDS011;5854;48.072;16.286;2023-02-12T06:49:55;16.40;;;14.70;;
11596;SDS011;5854;48.072;16.286;2023-02-12T07:15:51;15.95;;;14.10;;
11596;SDS011;5854;48.072;16.286;2023-02-12T07:18:18;17.17;;;14.85;;
11596;SDS011;5854;48.072;16.286;2023-02-12T07:20:45;17.50;;;15.40;;
11596;SDS011;5854;48.072;16.286;2023-02-12T07:23:12;18.45;;;15.35;;
11596;SDS011;5854;48.072;16.286;2023-02-12T07:25:39;17.35;;;14.75;;
11596;SDS011;5854;48.072;16.286;2023-02-12T07:28:06;17.88;;;15.88;;
11596;SDS011;5854;48.072;16.286;2023-02-12T07:30:35;15.23;;;13.63;;
11596;SDS011;5854;48.072;16.286;2023-02-12T07:33:03;16.27;;;14.32;;
11596;SDS011;5854;48.072;16.286;2023-02-12T07:35:30;16.00;;;14.30;;
11596;SDS011;5854;48.072;16.286;2023-02-12T07:37:57;16.52;;;13.95;;
11596;SDS011;5854;48.072;16.286;2023-02-12T07:40:24;18.95;;;15.63;;
11596;SDS011;5854;48.072;16.286;2023-02-12T07:42:53;16.35;;;14.60;;
11596;SDS011;5854;48.072;16.286;2023-02-12T07:45:21;19.58;;;15.98;;
11596;SDS011;5854;48.072;16.286;2023-02-12T07:47:50;17.48;;;14.80;;
11596;SDS011;5854;48.072;16.286;2023-02-12T07:50:17;17.30;;;14.82;;
11596;SDS011;5854;48.072;16.286;2023-02-12T07:52:47;16.73;;;14.73;;
11596;SDS011;5854;48.072;16.286;2023-02-12T07:55:15;18.00;;;16.02;;
11596;SDS011;5854;48.072;16.286;2023-02-12T07:57:42;14.82;;;13.30;;
11596;SDS011;5854;48.072;16.286;2023-02-12T08:00:10;15.45;;;13.88;;
11596;SDS011;5854;48.072;16.286;2023-02-12T08:02:38;17.38;;;14.38;;
11596;SDS011;5854;48.072;16.286;2023-02-12T08:05:07;19.63;;;15.18;;
11596;SDS011;5854;48.072;16.286;2023-02-12T08:07:34;15.23;;;13.60;;
11596;SDS011;5854;48.072;16.286;2023-02-12T08:10:01;15.02;;;12.75;;
11596;SDS011;5854;48.072;16.286;2023-02-12T08:12:32;17.00;;;14.80;;
11596;SDS011;5854;48.072;16.286;2023-02-12T08:14:59;17.52;;;14.73;;
11596;SDS011;5854;48.072;16.286;2023-02-12T08:17:26;19.70;;;15.65;;
11596;SDS011;5854;48.072;16.286;2023-02-12T08:19:53;16.08;;;14.38;;
11596;SDS011;5854;48.072;16.286;2023-02-12T08:22:22;14.95;;;13.48;;
11596;SDS011;5854;48.072;16.286;2023-02-12T08:24:49;14.38;;;13.07;;
11596;SDS011;5854;48.072;16.286;2023-02-12T08:27:16;15.20;;;13.60;;
11596;SDS011;5854;48.072;16.286;2023-02-12T08:29:43;15.10;;;13.55;;
11596;SDS011;5854;48.072;16.286;2023-02-12T08:32:10;19.15;;;16.48;;
11596;SDS011;5854;48.072;16.286;2023-02-12T08:34:38;16.85;;;13.70;;
11596;SDS011;5854;48.072;16.286;2023-02-12T08:37:05;16.10;;;14.45;;
11596;SDS011;5854;48.072;16.286;2023-02-12T08:39:33;19.52;;;15.85;;
11596;SDS011;5854;48.072;16.286;2023-02-12T08:42:00;15.65;;;13.93;;
11596;SDS011;5854;48.072;16.286;2023-02-12T08:44:27;18.55;;;14.18;;
11596;SDS011;5854;48.072;16.286;2023-02-12T08:46:55;15.80;;;14.07;;
11596;SDS011;5854;48.072;16.286;2023-02-12T08:49:23;15.63;;;13.95;;
11596;SDS011;5854;48.072;16.286;2023-02-12T08:51:55;16.55;;;13.77;;
11596;SDS011;5854;48.072;16.286;2023-02-12T08:54:25;15.68;;;13.63;;
11596;SDS011;5854;48.072;16.286;2023-02-12T08:56:55;15.38;;;13.70;;
11596;SDS011;5854;48.072;16.286;2023-02-12T08:59:24;16.33;;;14.13;;
11596;SDS011;5854;48.072;16.286;2023-02-12T09:01:52;17.15;;;14.90;;
11596;SDS011;5854;48.072;16.286;2023-02-12T09:04:20;13.25;;;11.80;;
11596;SDS011;5854;48.072;16.286;2023-02-12T09:06:50;15.50;;;13.90;;
11596;SDS011;5854;48.072;16.286;2023-02-12T09:09:18;17.15;;;14.70;;
11596;SDS011;5854;48.072;16.286;2023-02-12T09:11:45;15.50;;;13.90;;
11596;SDS011;5854;48.072;16.286;2023-02-12T09:14:15;15.50;;;13.80;;
11596;SDS011;5854;48.072;16.286;2023-02-12T09:16:48;15.70;;;14.02;;
11596;SDS011;5854;48.072;16.286;2023-02-12T09:19:17;18.90;;;15.18;;
11596;SDS011;5854;48.072;16.286;2023-02-12T09:21:44;16.00;;;14.30;;
11596;SDS011;5854;48.072;16.286;2023-02-12T09:24:16;15.68;;;14.05;;
11596;SDS011;5854;48.072;16.286;2023-02-12T09:26:43;18.15;;;14.32;;
11596;SDS011;5854;48.072;16.286;2023-02-12T09:29:10;15.85;;;14.15;;
11596;SDS011;5854;48.072;16.286;2023-02-12T09:31:38;17.58;;;15.02;;
11596;SDS011;5854;48.072;16.286;2023-02-12T09:34:05;16.45;;;14.30;;
11596;SDS011;5854;48.072;16.286;2023-02-12T09:36:33;17.20;;;14.15;;
11596;SDS011;5854;48.072;16.286;2023-02-12T09:39:01;16.25;;;14.02;;
11596;SDS011;5854;48.072;16.286;2023-02-12T09:44:43;16.83;;;14.20;;
11596;SDS011;5854;48.072;16.286;2023-02-12T09:47:19;17.75;;;14.13;;
11596;SDS011;5854;48.072;16.286;2023-02-12T09:49:55;15.73;;;14.05;;
11596;SDS011;5854;48.072;16.286;2023-02-12T09:52:57;17.33;;;13.77;;
11596;SDS011;5854;48.072;16.286;2023-02-12T09:55:25;16.58;;;14.20;;
11596;SDS011;5854;48.072;16.286;2023-02-12T09:57:56;13.98;;;12.23;;
11596;SDS011;5854;48.072;16.286;2023-02-12T10:00:24;15.80;;;13.15;;
11596;SDS011;5854;48.072;16.286;2023-02-12T10:02:57;19.58;;;14.85;;
11596;SDS011;5854;48.072;16.286;2023-02-12T10:05:30;17.75;;;14.20;;
11596;SDS011;5854;48.072;16.286;2023-02-12T10:08:08;15.88;;;14.18;;
11596;SDS011;5854;48.072;16.286;2023-02-12T10:11:00;13.48;;;11.93;;
11596;SDS011;5854;48.072;16.286;2023-02-12T10:13:45;17.33;;;14.30;;
11596;SDS011;5854;48.072;16.286;2023-02-12T10:16:24;15.65;;;12.73;;
11596;SDS011;5854;48.072;16.286;2023-02-12T10:19:08;15.80;;;12.70;;
11596;SDS011;5854;48.072;16.286;2023-02-12T10:21:59;20.15;;;14.20;;
11596;SDS011;5854;48.072;16.286;2023-02-12T10:24:41;15.50;;;13.40;;
11596;SDS011;5854;48.072;16.286;2023-02-12T10:27:15;20.23;;;15.65;;
11596;SDS011;5854;48.072;16.286;2023-02-12T10:29:47;19.88;;;15.75;;
11596;SDS011;5854;48.072;16.286;2023-02-12T10:32:22;20.00;;;16.08;;
11596;SDS011;5854;48.072;16.286;2023-02-12T10:37:27;20.40;;;17.00;;
11596;SDS011;5854;48.072;16.286;2023-02-12T10:40:03;24.70;;;16.95;;
11596;SDS011;5854;48.072;16.286;2023-02-12T10:42:41;18.80;;;15.63;;
11596;SDS011;5854;48.072;16.286;2023-02-12T10:45:11;21.55;;;16.38;;
11596;SDS011;5854;48.072;16.286;2023-02-12T10:47:40;22.95;;;17.33;;
11596;SDS011;5854;48.072;16.286;2023-02-12T10:50:14;20.23;;;16.70;;
11596;SDS011;5854;48.072;16.286;2023-02-12T10:52:49;22.58;;;16.10;;
11596;SDS011;5854;48.072;16.286;2023-02-12T10:55:23;19.55;;;15.60;;
11596;SDS011;5854;48.072;16.286;2023-02-12T10:58:15;20.02;;;15.02;;
11596;SDS011;5854;48.072;16.286;2023-02-12T11:00:45;19.40;;;15.45;;
11596;SDS011;5854;48.072;16.286;2023-02-12T11:03:18;16.27;;;13.70;;
11596;SDS011;5854;48.072;16.286;2023-02-12T11:05:48;18.92;;;14.95;;
11596;SDS011;5854;48.072;16.286;2023-02-12T11:08:29;20.40;;;14.73;;
11596;SDS011;5854;48.072;16.286;2023-02-12T11:11:09;18.75;;;14.77;;
11596;SDS011;5854;48.072;16.286;2023-02-12T11:14:03;21.23;;;15.40;;
11596;SDS011;5854;48.072;16.286;2023-02-12T11:24:31;17.95;;;14.30;;
11596;SDS011;5854;48.072;16.286;2023-02-12T11:33:21;17.98;;;14.57;;
11596;SDS011;5854;48.072;16.286;2023-02-12T11:50:24;17.45;;;13.35;;
11596;SDS011;5854;48.072;16.286;2023-02-12T12:03:59;14.50;;;12.38;;
11596;SDS011;5854;48.072;16.286;2023-02-12T12:06:35;18.88;;;14.13;;
11596;SDS011;5854;48.072;16.286;2023-02-12T12:09:09;15.18;;;13.07;;
11596;SDS011;5854;48.072;16.286;2023-02-12T12:11:46;14.43;;;12.65;;
11596;SDS011;5854;48.072;16.286;2023-02-12T12:14:23;18.45;;;13.07;;
11596;SDS011;5854;48.072;16.286;2023-02-12T12:16:56;13.10;;;11.75;;
11596;SDS011;5854;48.072;16.286;2023-02-12T12:19:48;14.75;;;12.10;;
11596;SDS011;5854;48.072;16.286;2023-02-12T12:22:41;14.73;;;12.75;;
11596;SDS011;5854;48.072;16.286;2023-02-12T12:25:19;16.40;;;12.50;;
11596;SDS011;5854;48.072;16.286;2023-02-12T12:27:55;17.63;;;13.90;;
11596;SDS011;5854;48.072;16.286;2023-02-12T12:30:41;15.00;;;12.90;;
11596;SDS011;5854;48.072;16.286;2023-02-12T12:33:23;14.23;;;12.30;;
11596;SDS011;5854;48.072;16.286;2023-02-12T12:39:25;20.85;;;13.25;;
11596;SDS011;5854;48.072;16.286;2023-02-12T12:42:19;17.98;;;12.40;;
11596;SDS011;5854;48.072;16.286;2023-02-12T12:45:28;17.67;;;12.45;;
11596;SDS011;5854;48.072;16.286;2023-02-12T12:48:13;18.38;;;12.38;;
11596;SDS011;5854;48.072;16.286;2023-02-12T12:53:49;16.85;;;12.85;;
11596;SDS011;5854;48.072;16.286;2023-02-12T12:56:42;14.30;;;12.23;;
11596;SDS011;5854;48.072;16.286;2023-02-12T13:02:53;18.63;;;13.20;;
11596;SDS011;5854;48.072;16.286;2023-02-12T13:06:04;15.48;;;12.27;;
11596;SDS011;5854;48.072;16.286;2023-02-12T13:12:30;15.18;;;11.77;;
11596;SDS011;5854;48.072;16.286;2023-02-12T13:15:15;16.42;;;11.38;;
11596;SDS011;5854;48.072;16.286;2023-02-12T13:17:54;18.55;;;12.15;;
11596;SDS011;5854;48.072;16.286;2023-02-12T13:20:32;11.85;;;10.65;;
11596;SDS011;5854;48.072;16.286;2023-02-12T13:23:10;16.27;;;12.20;;
11596;SDS011;5854;48.072;16.286;2023-02-12T13:25:43;14.85;;;12.20;;
11596;SDS011;5854;48.072;16.286;2023-02-12T13:28:23;16.70;;;11.93;;
11596;SDS011;5854;48.072;16.286;2023-02-12T13:30:56;13.98;;;11.77;;
11596;SDS011;5854;48.072;16.286;2023-02-12T13:33:24;15.52;;;11.70;;
11596;SDS011;5854;48.072;16.286;2023-02-12T13:35:57;12.02;;;10.60;;
11596;SDS011;5854;48.072;16.286;2023-02-12T13:38:27;11.63;;;9.75;;
11596;SDS011;5854;48.072;16.286;2023-02-12T13:41:01;12.52;;;10.32;;
11596;SDS011;5854;48.072;16.286;2023-02-12T13:43:44;11.35;;;10.23;;
11596;SDS011;5854;48.072;16.286;2023-02-12T13:46:27;17.08;;;13.02;;
11596;SDS011;5854;48.072;16.286;2023-02-12T13:49:04;12.02;;;10.60;;
11596;SDS011;5854;48.072;16.286;2023-02-12T13:51:42;11.77;;;10.55;;
11596;SDS011;5854;48.072;16.286;2023-02-12T13:54:16;14.45;;;10.52;;
11596;SDS011;5854;48.072;16.286;2023-02-12T13:56:56;12.38;;;11.20;;
11596;SDS011;5854;48.072;16.286;2023-02-12T14:05:25;12.40;;;10.27;;
11596;SDS011;5854;48.072;16.286;2023-02-12T14:07:55;15.57;;;12.32;;
11596;SDS011;5854;48.072;16.286;2023-02-12T14:10:27;13.82;;;12.18;;
11596;SDS011;5854;48.072;16.286;2023-02-12T14:13:06;13.73;;;11.43;;
11596;SDS011;5854;48.072;16.286;2023-02-12T14:15:47;13.57;;;11.00;;
11596;SDS011;5854;48.072;16.286;2023-02-12T14:18:25;11.18;;;9.98;;
11596;SDS011;5854;48.072;16.286;2023-02-12T14:27:17;16.77;;;12.77;;
11596;SDS011;5854;48.072;16.286;2023-02-12T14:33:08;15.80;;;13.05;;
11596;SDS011;5854;48.072;16.286;2023-02-12T14:35:45;17.02;;;11.25;;
11596;SDS011;5854;48.072;16.286;2023-02-12T14:41:23;25.75;;;12.15;;
11596;SDS011;5854;48.072;16.286;2023-02-12T14:47:13;17.13;;;12.32;;
11596;SDS011;5854;48.072;16.286;2023-02-12T14:50:19;19.08;;;13.95;;
11596;SDS011;5854;48.072;16.286;2023-02-12T14:52:52;20.33;;;12.52;;
11596;SDS011;5854;48.072;16.286;2023-02-12T14:55:26;18.27;;;11.80;;
11596;SDS011;5854;48.072;16.286;2023-02-12T14:57:59;25.90;;;12.93;;
11596;SDS011;5854;48.072;16.286;2023-02-12T15:00:30;16.85;;;12.43;;
11596;SDS011;5854;48.072;16.286;2023-02-12T15:03:05;15.00;;;11.18;;
11596;SDS011;5854;48.072;16.286;2023-02-12T15:05:46;22.10;;;11.98;;
11596;SDS011;5854;48.072;16.286;2023-02-12T15:08:23;16.83;;;11.15;;
11596;SDS011;5854;48.072;16.286;2023-02-12T15:11:19;15.40;;;11.23;;
11596;SDS011;5854;48.072;16.286;2023-02-12T15:13:53;19.60;;;11.02;;
11596;SDS011;5854;48.072;16.286;2023-02-12T15:16:28;18.38;;;11.13;;
11596;SDS011;5854;48.072;16.286;2023-02-12T15:19:06;14.93;;;10.95;;
11596;SDS011;5854;48.072;16.286;2023-02-12T15:21:51;19.30;;;10.82;;
11596;SDS011;5854;48.072;16.286;2023-02-12T15:24:20;14.23;;;11.50;;
11596;SDS011;5854;48.072;16.286;2023-02-12T15:26:49;17.20;;;10.88;;
11596;SDS011;5854;48.072;16.286;2023-02-12T15:29:19;13.98;;;9.75;;
11596;SDS011;5854;48.072;16.286;2023-02-12T15:31:50;15.43;;;10.07;;
11596;SDS011;5854;48.072;16.286;2023-02-12T15:34:20;12.00;;;10.80;;
11596;SDS011;5854;48.072;16.286;2023-02-12T15:36:52;12.50;;;10.03;;
11596;SDS011;5854;48.072;16.286;2023-02-12T15:39:24;14.13;;;10.38;;
11596;SDS011;5854;48.072;16.286;2023-02-12T15:41:53;10.65;;;9.50;;
11596;SDS011;5854;48.072;16.286;2023-02-12T15:44:26;10.57;;;9.57;;
11596;SDS011;5854;48.072;16.286;2023-02-12T15:47:00;12.07;;;10.80;;
11596;SDS011;5854;48.072;16.286;2023-02-12T15:49:46;10.43;;;8.75;;
11596;SDS011;5854;48.072;16.286;2023-02-12T15:52:18;13.05;;;10.68;;
11596;SDS011;5854;48.072;16.286;2023-02-12T15:54:58;10.95;;;9.88;;
11596;SDS011;5854;48.072;16.286;2023-02-12T15:57:38;11.25;;;9.75;;
11596;SDS011;5854;48.072;16.286;2023-02-12T16:00:09;11.82;;;9.82;;
11596;SDS011;5854;48.072;16.286;2023-02-12T16:02:58;12.20;;;9.40;;
11596;SDS011;5854;48.072;16.286;2023-02-12T16:05:36;12.07;;;9.15;;
11596;SDS011;5854;48.072;16.286;2023-02-12T16:08:10;13.13;;;9.85;;
11596;SDS011;5854;48.072;16.286;2023-02-12T16:10:42;11.73;;;9.32;;
11596;SDS011;5854;48.072;16.286;2023-02-12T16:13:13;10.70;;;9.60;;
11596;SDS011;5854;48.072;16.286;2023-02-12T16:15:43;11.40;;;9.20;;
11596;SDS011;5854;48.072;16.286;2023-02-12T16:18:23;11.38;;;9.27;;
11596;SDS011;5854;48.072;16.286;2023-02-12T16:21:00;10.60;;;9.60;;
11596;SDS011;5854;48.072;16.286;2023-02-12T16:23:31;10.55;;;9.45;;
11596;SDS011;5854;48.072;16.286;2023-02-12T16:26:01;10.65;;;9.55;;
11596;SDS011;5854;48.072;16.286;2023-02-12T16:28:29;9.95;;;8.55;;
11596;SDS011;5854;48.072;16.286;2023-02-12T16:31:06;11.27;;;8.85;;
11596;SDS011;5854;48.072;16.286;2023-02-12T16:33:40;10.38;;;9.27;;
11596;SDS011;5854;48.072;16.286;2023-02-12T16:36:25;9.35;;;8.40;;
11596;SDS011;5854;48.072;16.286;2023-02-12T16:38:58;10.18;;;9.13;;
11596;SDS011;5854;48.072;16.286;2023-02-12T16:41:27;10.20;;;8.63;;
11596;SDS011;5854;48.072;16.286;2023-02-12T16:47:02;10.10;;;8.98;;
11596;SDS011;5854;48.072;16.286;2023-02-12T16:49:29;10.35;;;9.30;;
11596;SDS011;5854;48.072;16.286;2023-02-12T16:52:18;10.95;;;9.90;;
11596;SDS011;5854;48.072;16.286;2023-02-12T16:55:02;10.32;;;8.80;;
11596;SDS011;5854;48.072;16.286;2023-02-12T16:57:32;9.38;;;8.43;;
11596;SDS011;5854;48.072;16.286;2023-02-12T17:20:33;10.27;;;9.27;;
11596;SDS011;5854;48.072;16.286;2023-02-12T17:23:00;9.98;;;8.98;;
11596;SDS011;5854;48.072;16.286;2023-02-12T17:25:28;9.85;;;8.73;;
11596;SDS011;5854;48.072;16.286;2023-02-12T17:27:56;9.63;;;8.00;;
11596;SDS011;5854;48.072;16.286;2023-02-12T17:30:23;9.68;;;8.48;;
11596;SDS011;5854;48.072;16.286;2023-02-12T17:32:50;11.52;;;10.35;;
11596;SDS011;5854;48.072;16.286;2023-02-12T17:35:17;11.73;;;9.93;;
11596;SDS011;5854;48.072;16.286;2023-02-12T17:37:46;15.20;;;12.18;;
11596;SDS011;5854;48.072;16.286;2023-02-12T17:40:13;8.43;;;7.72;;
11596;SDS011;5854;48.072;16.286;2023-02-12T17:42:40;8.63;;;7.82;;
11596;SDS011;5854;48.072;16.286;2023-02-12T17:45:08;8.85;;;7.97;;
11596;SDS011;5854;48.072;16.286;2023-02-12T17:47:35;9.00;;;7.82;;
11596;SDS011;5854;48.072;16.286;2023-02-12T17:50:06;10.80;;;9.57;;
11596;SDS011;5854;48.072;16.286;2023-02-12T17:52:37;10.80;;;9.25;;